Allenville, Missouri
Current Conditions -  °F | °C
As of 6:53 PM on Tuesday 21 Oct 2014 (Local Time) from KCGI Reporting Station
Clear Clear  
Wind Chill: 58°   Ceiling: Unl
Heat Index: 58°   Visibility: 10mi
Dew Point: 46°   Wind: 6mph
Humidity: 65%   Direction: 10°N
Pressure: 30.1"   Gusts: NA
Location:  37.1651°N, 89.623°W
Report Text: KCGI 212353Z AUTO 01005KT 10SM CLR 14/08 A3010 RMK AO2 SLP191 T01440078 10222 20144 53010 TSNO
Loading
Personal Weather Stations






























Interactive Weather Map
Tropical Storm Tracking
New forecast layout! Learn more

10-Day Weather Forecast

Advertisements
Track Severe Weather on mobile